Time;durP1;ratioP1;P1;durP2;ratioP2;P2;SDS_P1;SDS_P2;PMS_P1;PMS_P2;Temp;Humidity;BMP_temperature;BMP_pressure;BME280_temperature;BME280_humidity;BME280_pressure;Samples;Min_cycle;Max_cycle;Signal;HPM_P1;HPM_P2
2021/07/22 00:00:38;;;;;;;5.32;4.45;;;23.90;53.10;;;;;;5013622;28;20030;-80
2021/07/22 00:03:04;;;;;;;5.28;4.22;;;23.80;53.00;;;;;;5011219;28;20101;-80
2021/07/22 00:05:29;;;;;;;5.63;4.55;;;23.80;53.00;;;;;;5009474;28;20041;-80
2021/07/22 00:08:00;;;;;;;6.85;4.80;;;23.80;53.20;;;;;;5011610;28;20026;-80
2021/07/22 00:10:25;;;;;;;7.07;4.38;;;23.80;53.10;;;;;;5011029;28;20386;-82
2021/07/22 00:12:51;;;;;;;7.32;4.90;;;23.80;53.40;;;;;;5009731;28;20022;-82
2021/07/22 00:15:17;;;;;;;5.60;4.50;;;23.80;53.20;;;;;;5009922;28;20032;-82
2021/07/22 00:17:42;;;;;;;5.13;4.68;;;23.70;53.30;;;;;;5010425;28;20052;-81
2021/07/22 00:20:08;;;;;;;5.90;4.50;;;23.70;53.80;;;;;;5011555;28;20033;-81
2021/07/22 00:22:38;;;;;;;5.00;4.50;;;23.60;53.20;;;;;;5009483;28;20107;-82
2021/07/22 00:25:07;;;;;;;5.47;4.75;;;23.60;53.70;;;;;;5010620;28;20075;-80
2021/07/22 00:27:34;;;;;;;5.47;4.28;;;23.60;53.20;;;;;;5012021;28;20037;-80
2021/07/22 00:29:59;;;;;;;5.20;4.70;;;23.60;53.50;;;;;;5009846;28;20454;-80
2021/07/22 00:32:25;;;;;;;4.95;4.22;;;23.60;53.60;;;;;;5009342;28;20038;-80
2021/07/22 00:34:51;;;;;;;5.13;4.00;;;23.50;53.50;;;;;;5010311;28;20092;-81
2021/07/22 00:37:16;;;;;;;5.28;4.47;;;23.50;53.50;;;;;;5011217;28;20418;-80
2021/07/22 00:39:42;;;;;;;5.22;4.43;;;23.50;53.60;;;;;;5012977;28;20084;-81
2021/07/22 00:42:08;;;;;;;6.22;4.28;;;23.50;54.10;;;;;;5008653;28;20021;-80
2021/07/22 00:44:33;;;;;;;5.32;4.43;;;23.50;54.10;;;;;;5009998;28;20026;-80
2021/07/22 00:46:59;;;;;;;5.00;4.50;;;23.40;54.40;;;;;;5010392;28;20068;-80
2021/07/22 00:49:25;;;;;;;4.85;4.45;;;23.40;54.10;;;;;;5012949;28;20030;-79
2021/07/22 00:51:50;;;;;;;4.53;4.13;;;23.40;54.40;;;;;;5011108;28;20032;-80
2021/07/22 00:54:16;;;;;;;6.32;4.50;;;23.30;54.00;;;;;;5008345;28;20018;-80
2021/07/22 00:56:41;;;;;;;6.60;4.50;;;23.30;53.80;;;;;;5011233;28;20052;-80
2021/07/22 00:59:07;;;;;;;6.70;4.63;;;23.30;54.70;;;;;;5012196;28;20029;-80
2021/07/22 01:01:33;;;;;;;5.40;4.47;;;23.30;54.90;;;;;;5010561;28;20029;-80
2021/07/22 01:03:58;;;;;;;6.95;4.90;;;23.30;54.80;;;;;;5010368;28;20052;-80
2021/07/22 01:06:24;;;;;;;4.75;4.20;;;23.20;54.60;;;;;;5009261;28;20042;-80
2021/07/22 01:08:50;;;;;;;5.93;4.60;;;23.20;54.60;;;;;;5008125;28;20117;-80
2021/07/22 01:11:16;;;;;;;5.78;4.22;;;23.20;54.70;;;;;;5010684;28;20033;-80
2021/07/22 01:13:41;;;;;;;6.57;4.47;;;23.20;54.50;;;;;;5008820;28;20021;-81
2021/07/22 01:16:07;;;;;;;6.30;4.50;;;23.20;54.90;;;;;;5012738;28;20057;-81
2021/07/22 01:18:33;;;;;;;5.30;4.35;;;23.10;54.90;;;;;;5009123;28;20105;-81
2021/07/22 01:20:58;;;;;;;5.75;4.57;;;23.10;54.80;;;;;;5004890;28;20402;-81
2021/07/22 01:23:24;;;;;;;6.75;4.55;;;23.10;55.30;;;;;;5023376;28;20022;-81
2021/07/22 01:25:51;;;;;;;5.35;4.55;;;23.10;55.30;;;;;;5010261;28;20033;-81
2021/07/22 01:28:17;;;;;;;6.32;4.40;;;23.00;55.50;;;;;;5009931;28;20033;-81
2021/07/22 01:30:43;;;;;;;6.97;4.60;;;23.00;55.30;;;;;;5009589;28;20061;-81
2021/07/22 01:33:08;;;;;;;5.47;4.65;;;23.00;55.10;;;;;;5007692;28;20109;-81
2021/07/22 01:35:34;;;;;;;5.40;4.43;;;23.00;55.80;;;;;;5006818;28;20024;-81
2021/07/22 01:38:00;;;;;;;6.45;4.38;;;23.00;55.30;;;;;;5009563;28;20421;-79
2021/07/22 01:40:25;;;;;;;5.97;4.28;;;22.90;55.70;;;;;;5009541;28;20089;-80
2021/07/22 01:42:51;;;;;;;6.45;4.00;;;22.90;55.70;;;;;;5009353;28;20037;-80
2021/07/22 01:45:16;;;;;;;6.90;4.20;;;23.00;55.80;;;;;;5018926;28;20030;-79
2021/07/22 01:47:42;;;;;;;5.28;4.32;;;22.90;56.80;;;;;;5006451;28;20045;-79
2021/07/22 01:50:09;;;;;;;5.28;4.60;;;22.90;56.10;;;;;;5010611;28;20088;-80
2021/07/22 01:52:34;;;;;;;5.97;4.38;;;22.90;56.60;;;;;;5009856;28;20442;-81
2021/07/22 01:55:00;;;;;;;7.97;4.50;;;22.90;56.60;;;;;;5011758;28;20018;-80
2021/07/22 01:57:26;;;;;;;6.88;4.78;;;22.90;56.40;;;;;;5005294;28;20483;-80
2021/07/22 01:59:52;;;;;;;4.93;4.30;;;22.90;56.40;;;;;;5007813;28;20027;-81
2021/07/22 02:02:18;;;;;;;5.60;4.18;;;22.80;57.20;;;;;;5007565;28;20057;-80
2021/07/22 02:04:44;;;;;;;5.68;4.32;;;22.80;56.70;;;;;;5007543;28;20068;-80
2021/07/22 02:07:11;;;;;;;5.82;4.35;;;22.80;57.20;;;;;;5007604;28;20688;-79
2021/07/22 02:09:37;;;;;;;5.70;4.45;;;22.80;57.10;;;;;;5007386;28;20018;-80
2021/07/22 02:12:03;;;;;;;5.65;4.35;;;22.80;57.10;;;;;;5007193;28;20049;-79
2021/07/22 02:14:29;;;;;;;5.72;4.97;;;22.80;57.10;;;;;;5007509;28;20029;-80
2021/07/22 02:16:55;;;;;;;4.80;4.30;;;22.70;57.10;;;;;;5008803;28;20029;-80
2021/07/22 02:19:20;;;;;;;5.40;4.43;;;22.70;57.40;;;;;;5008218;28;20429;-80
2021/07/22 02:21:46;;;;;;;5.60;4.45;;;22.70;56.90;;;;;;5008164;28;20028;-79
2021/07/22 02:24:14;;;;;;;5.38;4.40;;;22.60;57.30;;;;;;5005880;28;20060;-79
2021/07/22 02:26:39;;;;;;;4.97;4.47;;;22.60;57.50;;;;;;5007544;28;20037;-79
2021/07/22 02:29:06;;;;;;;5.47;4.13;;;22.60;57.80;;;;;;5025673;28;20117;-79
2021/07/22 02:31:33;;;;;;;5.60;4.70;;;22.50;58.30;;;;;;5006706;28;20057;-80
2021/07/22 02:33:58;;;;;;;5.20;4.70;;;22.50;57.70;;;;;;5009350;28;20025;-79
2021/07/22 02:36:24;;;;;;;5.93;4.65;;;22.40;58.00;;;;;;5009391;28;20398;-80
2021/07/22 02:38:50;;;;;;;5.10;4.60;;;22.40;57.90;;;;;;5009815;28;20026;-80
2021/07/22 02:41:15;;;;;;;6.15;4.70;;;22.30;58.90;;;;;;5007089;28;20041;-80
2021/07/22 02:43:41;;;;;;;4.88;4.22;;;22.30;58.60;;;;;;5008811;28;20513;-80
2021/07/22 02:46:07;;;;;;;6.25;4.50;;;22.30;59.10;;;;;;5010197;28;20160;-81
2021/07/22 02:48:33;;;;;;;5.85;4.20;;;22.20;58.90;;;;;;5014519;28;20026;-80
2021/07/22 02:51:03;;;;;;;5.93;4.85;;;22.20;59.90;;;;;;5006766;28;20200;-79
2021/07/22 02:53:29;;;;;;;6.13;4.63;;;22.20;58.90;;;;;;5007322;28;20387;-79
2021/07/22 02:55:57;;;;;;;6.13;4.80;;;22.10;59.20;;;;;;5007342;28;20026;-79
2021/07/22 02:58:23;;;;;;;7.03;4.88;;;22.10;59.60;;;;;;5009202;28;20037;-80
2021/07/22 03:00:49;;;;;;;5.93;5.10;;;22.10;59.90;;;;;;5011761;28;20041;-80
2021/07/22 03:03:15;;;;;;;6.95;4.70;;;22.10;59.40;;;;;;5010659;28;20486;-80
2021/07/22 03:05:40;;;;;;;5.22;4.72;;;22.00;60.20;;;;;;5009628;28;20041;-80
2021/07/22 03:08:06;;;;;;;5.45;4.93;;;22.00;59.40;;;;;;5010363;28;20030;-80
2021/07/22 03:10:31;;;;;;;6.07;4.68;;;22.00;60.00;;;;;;5011269;28;20022;-80
2021/07/22 03:12:57;;;;;;;4.68;4.28;;;22.00;60.60;;;;;;5013001;28;20060;-79
2021/07/22 03:15:23;;;;;;;5.78;4.60;;;22.00;60.60;;;;;;5008422;28;20026;-79
2021/07/22 03:17:48;;;;;;;5.57;4.75;;;22.00;61.70;;;;;;5006694;28;20027;-79
2021/07/22 03:20:14;;;;;;;7.38;4.57;;;22.00;61.20;;;;;;4958532;28;20084;-79
2021/07/22 03:22:40;;;;;;;6.05;5.28;;;21.90;61.00;;;;;;5004795;28;20490;-80
2021/07/22 03:25:07;;;;;;;7.85;4.90;;;21.90;60.40;;;;;;5012676;28;20034;-79
2021/07/22 03:27:32;;;;;;;6.32;5.30;;;21.90;60.50;;;;;;5010590;28;20041;-79
2021/07/22 03:29:58;;;;;;;8.23;5.40;;;21.90;61.00;;;;;;5026738;28;20038;-79
2021/07/22 03:32:24;;;;;;;5.38;4.72;;;21.80;60.90;;;;;;5010209;28;20068;-79
2021/07/22 03:34:49;;;;;;;5.85;5.00;;;21.80;61.30;;;;;;5012716;28;20052;-79
2021/07/22 03:37:15;;;;;;;6.20;5.40;;;21.80;61.50;;;;;;5012515;28;20053;-78
2021/07/22 03:39:40;;;;;;;7.53;4.60;;;21.70;61.00;;;;;;5010902;28;20033;-80
2021/07/22 03:42:06;;;;;;;6.85;5.05;;;21.80;61.60;;;;;;5009887;28;21588;-81
2021/07/22 03:44:32;;;;;;;8.02;5.57;;;21.70;61.70;;;;;;5011458;28;20021;-82
2021/07/22 03:46:58;;;;;;;6.20;4.95;;;21.70;61.30;;;;;;5011240;28;20450;-81
2021/07/22 03:49:24;;;;;;;5.80;4.75;;;21.70;61.60;;;;;;5011011;28;20033;-70
2021/07/22 03:51:54;;;;;;;6.47;5.35;;;21.70;62.80;;;;;;5012640;28;20044;-69
2021/07/22 03:54:19;;;;;;;7.03;5.47;;;21.70;61.30;;;;;;5012601;28;20112;-72
2021/07/22 03:56:45;;;;;;;7.32;5.40;;;21.70;61.90;;;;;;5011471;28;20115;-72
2021/07/22 03:59:10;;;;;;;7.82;5.30;;;21.70;62.00;;;;;;5011942;28;20025;-72
2021/07/22 04:01:36;;;;;;;5.55;4.95;;;21.60;61.50;;;;;;5011776;28;20044;-72
2021/07/22 04:04:02;;;;;;;7.30;5.13;;;21.60;61.30;;;;;;5009664;28;20019;-70
2021/07/22 04:06:27;;;;;;;7.15;5.35;;;21.60;62.20;;;;;;5003503;28;20065;-70
2021/07/22 04:08:53;;;;;;;5.85;4.95;;;21.60;62.30;;;;;;5009033;28;20048;-72
2021/07/22 04:11:19;;;;;;;7.82;5.18;;;21.60;62.90;;;;;;5010402;28;20037;-70
2021/07/22 04:13:44;;;;;;;6.75;4.97;;;21.60;62.40;;;;;;5000153;28;20022;-71
2021/07/22 04:16:10;;;;;;;7.53;5.40;;;21.60;62.50;;;;;;4995640;28;20486;-71
2021/07/22 04:18:35;;;;;;;5.57;4.57;;;21.60;62.40;;;;;;5010072;28;20022;-70
2021/07/22 04:21:02;;;;;;;5.78;5.10;;;21.50;62.90;;;;;;5011961;28;20442;-70
2021/07/22 04:23:28;;;;;;;5.43;4.88;;;21.60;63.00;;;;;;5011104;28;20482;-70
2021/07/22 04:25:53;;;;;;;7.95;5.57;;;21.50;62.50;;;;;;5011700;28;20080;-70
2021/07/22 04:28:19;;;;;;;6.22;5.57;;;21.50;62.50;;;;;;5001014;28;20077;-70
2021/07/22 04:30:44;;;;;;;5.63;5.00;;;21.40;62.60;;;;;;4998556;28;20423;-70
2021/07/22 04:33:10;;;;;;;7.18;5.10;;;21.40;63.00;;;;;;4998723;28;20065;-70
2021/07/22 04:35:35;;;;;;;7.00;5.40;;;21.40;64.00;;;;;;5005253;28;20372;-71
2021/07/22 04:38:01;;;;;;;6.70;5.07;;;21.40;63.40;;;;;;4997587;28;20034;-71
2021/07/22 04:40:27;;;;;;;7.15;5.00;;;21.40;63.40;;;;;;5010848;28;20085;-71
2021/07/22 04:42:52;;;;;;;7.35;5.30;;;21.40;64.50;;;;;;4999424;28;20546;-72
2021/07/22 04:45:18;;;;;;;6.80;5.32;;;21.40;63.70;;;;;;4999310;28;20049;-72
2021/07/22 04:47:43;;;;;;;6.45;5.30;;;21.50;63.60;;;;;;5004742;28;20570;-71
2021/07/22 04:50:10;;;;;;;5.90;4.88;;;21.50;63.30;;;;;;5010576;28;20503;-71
2021/07/22 04:52:36;;;;;;;6.15;5.15;;;21.40;63.60;;;;;;5010708;28;20395;-71
2021/07/22 04:55:01;;;;;;;6.00;5.18;;;21.50;63.50;;;;;;5011085;28;20022;-71
2021/07/22 04:57:27;;;;;;;7.60;6.15;;;21.50;63.50;;;;;;5010718;28;20050;-70
2021/07/22 04:59:53;;;;;;;7.70;5.70;;;21.40;63.40;;;;;;5010655;28;20037;-70
2021/07/22 05:02:19;;;;;;;8.60;5.82;;;21.50;63.70;;;;;;5012037;28;20104;-71
2021/07/22 05:04:45;;;;;;;6.32;5.30;;;21.50;63.70;;;;;;5012009;28;22613;-71
2021/07/22 05:07:11;;;;;;;7.45;5.38;;;21.50;63.70;;;;;;5008771;28;20534;-71
2021/07/22 05:09:37;;;;;;;9.50;5.68;;;21.50;63.70;;;;;;5012294;28;20645;-71
2021/07/22 05:12:05;;;;;;;7.13;5.35;;;21.60;64.00;;;;;;5012128;28;20101;-71
2021/07/22 05:14:30;;;;;;;7.30;5.80;;;21.60;63.70;;;;;;5010290;28;20026;-70
2021/07/22 05:16:56;;;;;;;7.85;6.10;;;21.60;63.60;;;;;;4995928;28;20072;-71
2021/07/22 05:19:21;;;;;;;6.88;5.60;;;21.60;63.60;;;;;;5006570;28;20049;-70
2021/07/22 05:21:47;;;;;;;8.13;5.75;;;21.60;64.60;;;;;;5011603;28;20152;-70
2021/07/22 05:24:13;;;;;;;7.25;5.53;;;21.60;63.90;;;;;;5003013;28;20379;-71
2021/07/22 05:26:38;;;;;;;7.28;5.68;;;21.70;63.70;;;;;;5002336;28;20037;-70
2021/07/22 05:29:04;;;;;;;8.68;5.40;;;21.70;64.30;;;;;;5009429;28;20022;-70
2021/07/22 05:31:30;;;;;;;7.55;5.47;;;21.70;64.10;;;;;;5010224;28;20069;-70
2021/07/22 05:33:55;;;;;;;7.82;6.00;;;21.70;64.20;;;;;;5011453;28;20359;-72
2021/07/22 05:36:21;;;;;;;7.05;5.55;;;21.70;64.10;;;;;;5009266;28;20076;-70
2021/07/22 05:38:46;;;;;;;7.72;5.88;;;21.70;64.50;;;;;;5009310;28;20076;-70
2021/07/22 05:41:12;;;;;;;7.75;6.00;;;21.80;64.20;;;;;;5009618;28;20375;-70
2021/07/22 05:43:38;;;;;;;7.60;6.43;;;21.80;64.40;;;;;;5010177;28;20022;-70
2021/07/22 05:46:04;;;;;;;6.65;5.70;;;21.90;64.10;;;;;;5012567;28;20038;-70
2021/07/22 05:48:30;;;;;;;7.28;5.82;;;21.90;65.40;;;;;;5004131;28;20049;-70
2021/07/22 05:51:00;;;;;;;8.88;6.45;;;21.90;64.10;;;;;;5008968;28;20036;-70
2021/07/22 05:53:25;;;;;;;6.90;5.85;;;22.00;63.70;;;;;;5011180;28;20034;-70
2021/07/22 05:55:51;;;;;;;7.10;5.75;;;22.00;64.60;;;;;;5008583;28;20526;-71
2021/07/22 05:58:17;;;;;;;6.97;5.75;;;22.10;63.90;;;;;;5011472;28;20076;-70
2021/07/22 06:00:42;;;;;;;6.70;5.85;;;22.10;63.80;;;;;;5010240;28;20049;-71
2021/07/22 06:03:08;;;;;;;9.80;5.72;;;22.20;63.80;;;;;;5008146;28;20080;-70
2021/07/22 06:05:34;;;;;;;8.07;5.55;;;22.20;64.60;;;;;;5009047;28;20092;-71
2021/07/22 06:08:03;;;;;;;10.25;6.53;;;22.20;64.40;;;;;;5009560;28;20023;-70
2021/07/22 06:10:29;;;;;;;7.82;5.95;;;22.30;64.20;;;;;;5009437;28;20049;-70
2021/07/22 06:12:56;;;;;;;8.05;5.93;;;22.40;64.10;;;;;;5010130;28;20080;-80
2021/07/22 06:15:22;;;;;;;7.15;5.63;;;22.40;63.60;;;;;;5006773;28;20026;-79
2021/07/22 06:17:48;;;;;;;8.57;6.13;;;22.40;63.10;;;;;;5008870;28;20021;-78
2021/07/22 06:20:14;;;;;;;6.93;5.68;;;22.40;63.30;;;;;;5009592;28;20032;-78
2021/07/22 06:22:40;;;;;;;8.95;6.50;;;22.50;63.20;;;;;;5009303;28;20018;-78
2021/07/22 06:25:06;;;;;;;8.75;6.40;;;22.50;64.00;;;;;;5011101;28;20088;-78
2021/07/22 06:27:32;;;;;;;7.78;5.82;;;22.50;63.30;;;;;;5010550;28;20483;-80
2021/07/22 06:30:02;;;;;;;6.32;5.72;;;22.60;63.10;;;;;;5009063;28;20056;-78
2021/07/22 06:32:28;;;;;;;8.10;6.05;;;22.60;63.00;;;;;;5009019;28;20487;-79
2021/07/22 06:34:54;;;;;;;7.50;6.20;;;22.70;62.80;;;;;;5008724;28;20036;-79
2021/07/22 06:37:19;;;;;;;7.65;5.93;;;22.70;62.60;;;;;;5009941;28;20030;-78
2021/07/22 06:39:45;;;;;;;7.70;6.13;;;22.80;62.70;;;;;;5004631;28;20394;-78
2021/07/22 06:42:10;;;;;;;9.52;5.90;;;22.80;62.40;;;;;;5007800;28;20030;-78
2021/07/22 06:44:36;;;;;;;8.45;6.10;;;22.80;62.30;;;;;;5008804;28;20056;-78
2021/07/22 06:47:02;;;;;;;8.88;5.75;;;22.90;62.30;;;;;;5008863;28;20461;-80
2021/07/22 06:49:28;;;;;;;7.15;5.95;;;22.90;62.10;;;;;;5008759;28;20390;-78
2021/07/22 06:51:53;;;;;;;10.88;6.22;;;23.00;62.10;;;;;;5010498;28;20038;-79
2021/07/22 06:54:20;;;;;;;7.25;5.65;;;23.10;62.10;;;;;;5006666;28;20032;-78
2021/07/22 06:56:46;;;;;;;11.25;6.55;;;23.10;61.90;;;;;;4998595;28;21736;-78
2021/07/22 06:59:12;;;;;;;10.38;5.78;;;23.20;62.00;;;;;;4978220;28;20037;-82
2021/07/22 07:01:37;;;;;;;8.82;6.43;;;23.20;61.90;;;;;;4999326;28;20037;-77
2021/07/22 07:04:04;;;;;;;7.60;5.82;;;23.30;61.70;;;;;;5011287;28;20036;-78
2021/07/22 07:06:32;;;;;;;7.72;6.15;;;23.30;61.60;;;;;;5009899;28;20069;-78
2021/07/22 07:08:57;;;;;;;9.65;5.82;;;23.40;61.50;;;;;;5008876;28;20026;-79
2021/07/22 07:11:23;;;;;;;8.88;5.72;;;23.50;61.00;;;;;;5010669;28;20040;-77
2021/07/22 07:13:49;;;;;;;9.55;6.03;;;23.60;60.80;;;;;;5008662;28;20061;-77
2021/07/22 07:16:14;;;;;;;8.38;6.05;;;23.60;60.40;;;;;;5011126;28;20072;-77
2021/07/22 07:18:40;;;;;;;8.00;6.20;;;23.70;60.50;;;;;;5011032;28;20033;-77
2021/07/22 07:21:06;;;;;;;12.77;6.50;;;23.70;60.00;;;;;;5006218;28;20034;-76
2021/07/22 07:23:32;;;;;;;9.07;6.00;;;23.80;60.00;;;;;;5008091;28;20126;-79
2021/07/22 07:25:59;;;;;;;8.82;6.82;;;23.80;59.70;;;;;;5009546;28;20053;-77
2021/07/22 07:28:26;;;;;;;9.40;6.88;;;23.90;59.20;;;;;;5010363;28;20022;-78
2021/07/22 07:30:51;;;;;;;7.68;5.95;;;23.90;59.20;;;;;;5000936;28;20046;-78
2021/07/22 07:33:17;;;;;;;9.23;6.68;;;24.00;59.10;;;;;;5017497;28;20044;-78
2021/07/22 07:35:43;;;;;;;6.90;5.65;;;24.00;59.10;;;;;;5004477;28;20034;-73
2021/07/22 07:38:08;;;;;;;7.55;5.90;;;24.20;63.90;;;;;;5001412;28;20510;-73
2021/07/22 07:40:34;;;;;;;7.53;5.68;;;24.60;62.50;;;;;;5006478;28;20065;-73
2021/07/22 07:43:00;;;;;;;9.00;6.47;;;24.70;60.20;;;;;;5011377;28;20030;-72
2021/07/22 07:45:26;;;;;;;9.98;6.38;;;24.80;58.80;;;;;;5003908;28;20053;-74
2021/07/22 07:47:52;;;;;;;8.88;6.00;;;24.90;58.10;;;;;;5003058;28;20021;-85
2021/07/22 07:50:19;;;;;;;10.82;6.90;;;24.80;57.10;;;;;;5012624;28;20030;-80
2021/07/22 07:52:45;;;;;;;9.02;7.10;;;24.70;56.70;;;;;;5011394;28;20053;-83
2021/07/22 07:55:12;;;;;;;9.27;6.75;;;24.70;56.90;;;;;;5014883;28;20152;-80
2021/07/22 07:57:38;;;;;;;10.90;7.22;;;24.60;56.80;;;;;;5009030;28;20490;-80
2021/07/22 08:00:05;;;;;;;12.57;6.97;;;24.60;56.20;;;;;;5012686;28;20033;-79
2021/07/22 08:02:31;;;;;;;9.95;6.78;;;24.60;56.50;;;;;;5012090;28;20033;-80
2021/07/22 08:04:57;;;;;;;9.73;7.07;;;24.60;56.20;;;;;;5013156;28;20026;-80
2021/07/22 08:07:24;;;;;;;9.85;7.40;;;24.70;56.20;;;;;;5013333;28;20050;-80
2021/07/22 08:09:50;;;;;;;8.75;6.80;;;24.70;55.70;;;;;;5012563;28;20527;-83
2021/07/22 08:12:16;;;;;;;10.23;7.03;;;24.70;56.30;;;;;;5007577;28;20026;-82
2021/07/22 08:14:42;;;;;;;9.63;7.35;;;24.80;55.70;;;;;;5010955;28;20077;-78
2021/07/22 08:17:08;;;;;;;11.65;7.32;;;24.80;55.50;;;;;;5010596;28;20033;-78
2021/07/22 08:19:34;;;;;;;10.60;7.43;;;24.90;55.50;;;;;;5010117;28;20034;-78
2021/07/22 08:22:00;;;;;;;11.98;7.28;;;24.90;55.40;;;;;;4996245;28;20076;-80
2021/07/22 08:24:26;;;;;;;12.70;7.22;;;24.90;55.00;;;;;;4997283;28;20035;-78
2021/07/22 08:26:52;;;;;;;11.57;7.68;;;25.00;54.90;;;;;;5004754;28;20049;-77
2021/07/22 08:29:18;;;;;;;13.65;8.15;;;25.10;54.90;;;;;;5011955;28;20112;-79
2021/07/22 08:31:44;;;;;;;12.45;8.30;;;25.10;54.50;;;;;;5010169;28;20459;-80
2021/07/22 08:34:12;;;;;;;11.65;7.75;;;25.10;53.90;;;;;;5014813;28;20022;-78
2021/07/22 08:36:37;;;;;;;11.60;7.75;;;25.20;54.20;;;;;;5012013;28;20056;-79
2021/07/22 08:39:03;;;;;;;10.85;7.50;;;25.20;54.40;;;;;;5014252;28;20025;-80
2021/07/22 08:41:29;;;;;;;11.05;8.40;;;25.30;54.00;;;;;;5016882;28;20026;-78
2021/07/22 08:43:57;;;;;;;12.23;8.25;;;25.40;54.10;;;;;;5005642;28;20093;-80
2021/07/22 08:46:24;;;;;;;14.00;8.23;;;25.30;53.40;;;;;;5008791;28;20038;-81
2021/07/22 08:48:50;;;;;;;11.98;8.00;;;25.40;53.40;;;;;;5011793;28;20030;-80
2021/07/22 08:51:18;;;;;;;11.88;8.32;;;25.50;53.00;;;;;;5009247;28;20033;-78
2021/07/22 08:53:43;;;;;;;13.00;9.00;;;25.50;52.90;;;;;;5011748;28;20026;-81
2021/07/22 08:56:09;;;;;;;11.75;8.40;;;25.60;52.80;;;;;;5010194;28;20383;-81
2021/07/22 08:58:39;;;;;;;10.65;8.35;;;25.60;52.80;;;;;;5009994;28;20109;-79
2021/07/22 09:01:09;;;;;;;13.20;8.65;;;25.70;53.00;;;;;;4998376;28;20014;-78
2021/07/22 09:03:35;;;;;;;16.40;9.98;;;25.70;52.30;;;;;;5001488;28;20095;-79
2021/07/22 09:06:14;;;;;;;12.52;8.50;;;25.70;52.60;;;;;;5001137;28;20538;-80
2021/07/22 09:08:39;;;;;;;14.30;10.18;;;25.90;52.70;;;;;;5001271;28;20022;-81
2021/07/22 09:11:15;;;;;;;12.95;9.73;;;25.90;52.30;;;;;;4996431;28;20033;-79
2021/07/22 09:13:40;;;;;;;15.27;10.38;;;26.00;51.40;;;;;;5007254;28;20403;-80
2021/07/22 09:16:08;;;;;;;22.00;13.13;;;26.00;51.20;;;;;;4998073;28;20038;-84
2021/07/22 09:18:38;;;;;;;14.30;10.23;;;26.00;51.60;;;;;;5010081;28;20407;-81
2021/07/22 09:21:23;;;;;;;28.45;18.35;;;26.10;50.80;;;;;;5011019;28;20041;-84
2021/07/22 09:24:08;;;;;;;16.33;11.95;;;26.10;50.30;;;;;;5010769;28;20026;-79
2021/07/22 09:26:38;;;;;;;23.70;15.63;;;26.20;50.90;;;;;;5010963;28;20048;-85
2021/07/22 09:29:12;;;;;;;16.55;12.15;;;26.20;50.20;;;;;;5008948;28;20028;-83
2021/07/22 09:31:38;;;;;;;16.60;10.40;;;26.30;50.10;;;;;;5010034;28;20061;-84
2021/07/22 09:34:22;;;;;;;15.25;10.20;;;26.30;48.90;;;;;;5012147;28;20029;-79
2021/07/22 09:36:48;;;;;;;14.15;10.13;;;26.40;50.00;;;;;;4994106;28;20084;-80
2021/07/22 09:39:23;;;;;;;15.60;10.60;;;26.40;49.50;;;;;;5012539;28;20038;-80
2021/07/22 09:42:03;;;;;;;15.63;9.80;;;26.50;49.50;;;;;;4998154;28;20105;-82
2021/07/22 09:44:30;;;;;;;14.85;9.10;;;26.50;49.70;;;;;;5001363;28;20027;-79
2021/07/22 09:46:57;;;;;;;13.15;9.70;;;26.60;48.70;;;;;;4995107;28;20044;-79
2021/07/22 09:49:32;;;;;;;11.95;8.98;;;26.60;48.90;;;;;;4993298;28;20014;-79
2021/07/22 09:52:02;;;;;;;12.63;9.15;;;26.60;49.20;;;;;;4995491;28;20040;-79
2021/07/22 09:54:36;;;;;;;12.45;9.15;;;26.70;49.00;;;;;;5002024;28;20029;-80
2021/07/22 09:57:23;;;;;;;11.70;8.93;;;26.80;48.90;;;;;;4998246;28;20077;-79
2021/07/22 09:59:50;;;;;;;13.82;9.75;;;26.80;47.70;;;;;;4999645;28;20101;-78
2021/07/22 10:02:25;;;;;;;10.82;8.93;;;26.80;49.50;;;;;;4995473;28;20022;-79
2021/07/22 10:04:52;;;;;;;14.55;9.18;;;26.80;48.60;;;;;;5005262;28;20071;-79
2021/07/22 10:07:21;;;;;;;12.27;8.75;;;26.80;47.90;;;;;;5007542;28;20641;-79
2021/07/22 10:09:57;;;;;;;11.82;8.77;;;26.90;48.90;;;;;;4994371;28;20585;-80
2021/07/22 10:12:24;;;;;;;10.38;8.00;;;27.00;47.80;;;;;;4994275;28;20026;-79
2021/07/22 10:14:57;;;;;;;10.73;8.30;;;27.00;48.20;;;;;;4995719;28;20069;-80
2021/07/22 10:17:35;;;;;;;11.75;7.82;;;27.00;48.40;;;;;;4997903;28;20037;-79
2021/07/22 10:20:04;;;;;;;11.23;8.10;;;27.10;48.60;;;;;;4995404;28;20040;-80
2021/07/22 10:22:31;;;;;;;8.52;7.22;;;27.20;47.90;;;;;;4992386;28;20392;-79
2021/07/22 10:24:57;;;;;;;13.02;7.47;;;27.20;47.30;;;;;;4995288;28;20022;-79
2021/07/22 10:27:24;;;;;;;13.75;9.60;;;27.20;47.90;;;;;;5003190;28;20041;-79
2021/07/22 10:29:50;;;;;;;9.77;7.45;;;27.30;47.60;;;;;;5001371;28;20058;-80
2021/07/22 10:32:25;;;;;;;10.20;7.28;;;27.30;47.60;;;;;;4994108;28;20033;-80
2021/07/22 10:34:53;;;;;;;9.98;7.07;;;27.30;47.30;;;;;;5004944;28;20034;-79
2021/07/22 10:37:20;;;;;;;14.88;9.38;;;27.40;47.80;;;;;;4992613;28;20030;-80
2021/07/22 10:40:09;;;;;;;13.65;9.52;;;27.40;47.30;;;;;;5006518;28;20097;-79
2021/07/22 10:42:51;;;;;;;10.00;7.60;;;27.40;47.30;;;;;;4998804;28;20080;-80
2021/07/22 10:45:20;;;;;;;7.72;6.15;;;27.50;47.70;;;;;;4996295;28;20128;-80
2021/07/22 10:48:06;;;;;;;9.40;6.93;;;27.50;47.00;;;;;;4998319;28;20035;-80
2021/07/22 10:50:39;;;;;;;11.88;7.97;;;27.50;46.70;;;;;;5001480;28;20033;-80
2021/07/22 10:53:06;;;;;;;8.95;6.70;;;27.60;47.60;;;;;;5004570;28;20021;-80
2021/07/22 10:55:40;;;;;;;7.95;6.60;;;27.60;46.80;;;;;;4991796;28;20048;-79
2021/07/22 10:58:24;;;;;;;8.75;6.45;;;27.70;47.20;;;;;;5012016;28;20025;-79
2021/07/22 11:00:51;;;;;;;11.68;6.60;;;27.70;47.10;;;;;;5006818;28;20045;-79
2021/07/22 11:03:35;;;;;;;8.93;6.28;;;27.70;46.80;;;;;;4992835;28;20048;-77
2021/07/22 11:06:09;;;;;;;8.68;6.90;;;27.70;47.00;;;;;;4995412;28;20574;-79
2021/07/22 11:08:39;;;;;;;8.27;6.78;;;27.80;46.40;;;;;;4995827;28;20514;-79
2021/07/22 11:11:07;;;;;;;10.60;6.40;;;27.80;46.40;;;;;;4996079;28;20458;-78
2021/07/22 11:13:36;;;;;;;7.93;6.38;;;27.80;46.60;;;;;;5009361;28;20117;-79
2021/07/22 11:16:03;;;;;;;8.20;6.47;;;27.90;46.40;;;;;;4999851;28;20023;-81
2021/07/22 11:18:44;;;;;;;7.00;5.68;;;27.90;45.30;;;;;;5004687;28;20036;-78
2021/07/22 11:21:18;;;;;;;9.73;6.45;;;27.90;45.10;;;;;;5002430;28;20030;-79
2021/07/22 11:23:56;;;;;;;7.57;5.82;;;27.90;44.40;;;;;;5007800;28;20049;-79
2021/07/22 11:26:26;;;;;;;7.68;5.90;;;28.00;44.60;;;;;;5002768;28;20042;-79
2021/07/22 11:28:52;;;;;;;7.20;5.30;;;28.00;43.90;;;;;;5012901;28;20498;-78
2021/07/22 11:31:18;;;;;;;7.60;5.40;;;28.10;44.00;;;;;;5006797;28;20053;-78
2021/07/22 11:33:44;;;;;;;8.38;5.90;;;28.10;44.20;;;;;;5012117;28;20040;-79
2021/07/22 11:36:19;;;;;;;9.50;6.30;;;28.10;43.40;;;;;;5012936;28;20029;-78
2021/07/22 11:38:52;;;;;;;8.18;5.55;;;28.10;44.00;;;;;;5012891;28;20033;-85
2021/07/22 11:41:20;;;;;;;9.02;5.22;;;28.10;43.10;;;;;;5022229;28;20527;-82
2021/07/22 11:43:48;;;;;;;6.22;4.90;;;28.20;43.30;;;;;;5001769;28;20515;-80
2021/07/22 11:46:16;;;;;;;7.22;5.55;;;28.20;42.40;;;;;;5010390;28;20062;-82
2021/07/22 11:48:43;;;;;;;6.80;5.72;;;28.20;42.70;;;;;;5002389;28;20061;-80
2021/07/22 11:51:14;;;;;;;7.53;5.03;;;28.20;43.60;;;;;;5004024;28;20026;-80
2021/07/22 11:53:42;;;;;;;9.57;5.93;;;28.30;44.00;;;;;;5005268;28;20022;-80
2021/07/22 11:56:13;;;;;;;6.15;5.20;;;28.40;42.90;;;;;;4999121;28;20030;-81
2021/07/22 11:58:40;;;;;;;7.72;5.60;;;28.60;42.50;;;;;;5012167;28;20034;-80
2021/07/22 12:01:07;;;;;;;8.55;5.70;;;28.60;41.30;;;;;;4989354;28;20068;-80
2021/07/22 12:03:33;;;;;;;7.93;6.00;;;28.70;42.70;;;;;;5010691;28;20050;-78
2021/07/22 12:05:58;;;;;;;7.95;5.88;;;28.80;41.80;;;;;;5003481;28;20077;-79
2021/07/22 12:08:24;;;;;;;7.22;5.30;;;28.90;42.50;;;;;;5004546;28;20089;-79
2021/07/22 12:10:56;;;;;;;7.50;5.68;;;29.00;41.70;;;;;;4995711;28;20030;-78
2021/07/22 12:13:22;;;;;;;9.13;5.68;;;29.10;41.90;;;;;;5012136;28;20037;-78
2021/07/22 12:15:48;;;;;;;7.32;5.55;;;29.10;40.60;;;;;;5012635;28;20030;-80
2021/07/22 12:18:14;;;;;;;7.63;5.43;;;29.10;40.40;;;;;;5012455;28;20029;-81
2021/07/22 12:20:40;;;;;;;6.30;5.32;;;29.10;40.80;;;;;;5014204;28;20036;-82
2021/07/22 12:23:25;;;;;;;9.07;6.93;;;29.20;41.50;;;;;;5008122;28;20391;-80
2021/07/22 12:25:58;;;;;;;6.97;5.40;;;29.30;41.60;;;;;;5007926;28;20541;-79
2021/07/22 12:28:24;;;;;;;6.22;5.22;;;29.30;41.00;;;;;;4995910;28;20035;-83
2021/07/22 12:30:50;;;;;;;9.55;5.43;;;29.40;41.10;;;;;;4998153;28;20105;-82
2021/07/22 12:33:26;;;;;;;6.63;5.20;;;29.40;40.70;;;;;;4997031;28;20049;-82
2021/07/22 12:35:53;;;;;;;7.85;5.20;;;29.40;41.00;;;;;;5015812;28;20120;-80
2021/07/22 12:38:19;;;;;;;7.13;4.82;;;29.50;41.10;;;;;;5013388;28;20022;-80
2021/07/22 12:40:49;;;;;;;7.57;5.50;;;29.40;40.50;;;;;;5013568;28;20158;-80
2021/07/22 12:43:20;;;;;;;7.25;5.13;;;29.50;41.30;;;;;;5015443;28;20022;-80